Time;durP1;ratioP1;P1;durP2;ratioP2;P2;SDS_P1;SDS_P2;PMS_P1;PMS_P2;Temp;Humidity;BMP_temperature;BMP_pressure;BME280_temperature;BME280_humidity;BME280_pressure;Samples;Min_cycle;Max_cycle;Signal;HPM_P1;HPM_P2
2023/12/25 00:00:39;;;;;;;0.33;0.30;;;;;;;11.27;93.32;95897.00;5034397;28;20247;-69
2023/12/25 00:03:05;;;;;;;0.30;0.30;;;;;;;11.15;93.49;95911.72;5034586;28;20240;-69
2023/12/25 00:05:32;;;;;;;0.40;0.40;;;;;;;11.10;93.75;95908.81;5034633;28;20205;-69
2023/12/25 00:07:58;;;;;;;0.40;0.40;;;;;;;11.06;93.58;95894.38;5035060;28;20201;-68
2023/12/25 00:10:25;;;;;;;0.70;0.53;;;;;;;11.17;93.50;95904.41;5035286;28;20197;-70
2023/12/25 00:12:51;;;;;;;0.40;0.40;;;;;;;11.14;93.26;95923.25;5035125;28;20221;-70
2023/12/25 00:15:17;;;;;;;0.80;0.70;;;;;;;11.13;93.52;95929.53;5035588;28;20212;-70
2023/12/25 00:17:46;;;;;;;0.40;0.30;;;;;;;11.21;93.29;95924.13;5035183;28;20220;-68
2023/12/25 00:20:12;;;;;;;0.50;0.50;;;;;;;11.09;93.67;95927.47;5035462;28;20205;-68
2023/12/25 00:22:39;;;;;;;0.40;0.33;;;;;;;10.94;94.17;95914.31;5034297;28;20221;-68
2023/12/25 00:25:06;;;;;;;0.30;0.30;;;;;;;11.07;94.15;95925.03;5035798;28;20221;-66
2023/12/25 00:27:33;;;;;;;0.50;0.50;;;;;;;10.89;94.23;95930.91;5035086;28;20666;-68
2023/12/25 00:29:59;;;;;;;0.40;0.30;;;;;;;10.96;94.16;95928.16;5037785;28;20778;-68
2023/12/25 00:32:25;;;;;;;0.60;0.60;;;;;;;10.94;94.42;95935.41;5038492;28;20232;-68
2023/12/25 00:34:53;;;;;;;0.30;0.30;;;;;;;10.94;94.56;95929.34;5039087;28;20204;-67
2023/12/25 00:37:20;;;;;;;0.30;0.30;;;;;;;10.79;94.95;95931.19;5038275;28;20197;-69
2023/12/25 00:39:47;;;;;;;0.40;0.40;;;;;;;10.91;94.71;95928.88;5038420;28;20208;-67
2023/12/25 00:42:13;;;;;;;0.57;0.40;;;;;;;10.85;95.51;95930.44;5037696;28;20228;-68
2023/12/25 00:44:40;;;;;;;0.30;0.30;;;;;;;10.84;95.11;95923.53;5038467;28;20228;-68
2023/12/25 00:47:06;;;;;;;1.43;0.80;;;;;;;10.85;96.03;95921.75;5037815;28;20197;-66
2023/12/25 00:49:33;;;;;;;0.37;0.37;;;;;;;10.68;96.79;95931.69;5038647;28;20201;-67
2023/12/25 00:52:01;;;;;;;2.23;0.40;;;;;;;10.77;96.71;95922.66;5037716;28;20248;-67
2023/12/25 00:54:29;;;;;;;0.40;0.40;;;;;;;10.61;97.05;95919.44;5037739;28;20193;-68
2023/12/25 00:56:56;;;;;;;0.83;0.83;;;;;;;10.71;96.85;95925.22;5037999;28;20209;-67
2023/12/25 00:59:22;;;;;;;0.57;0.40;;;;;;;10.63;96.94;95925.34;5038262;28;20204;-68
2023/12/25 01:01:48;;;;;;;0.50;0.40;;;;;;;10.58;98.17;95938.25;5037943;28;20224;-68
2023/12/25 01:04:15;;;;;;;0.67;0.60;;;;;;;10.59;97.79;95926.69;5037625;28;20223;-68
2023/12/25 01:06:42;;;;;;;0.60;0.60;;;;;;;10.55;97.69;95931.53;5037185;28;20209;-68
2023/12/25 01:09:09;;;;;;;0.60;0.50;;;;;;;10.68;96.59;95930.84;5038124;28;20573;-68
2023/12/25 01:11:40;;;;;;;0.50;0.40;;;;;;;10.77;96.38;95933.22;5037340;28;20201;-68
2023/12/25 01:14:07;;;;;;;0.40;0.40;;;;;;;10.51;97.31;95932.06;5037503;28;20197;-68
2023/12/25 01:16:33;;;;;;;0.67;0.40;;;;;;;10.50;97.10;95930.41;5038195;28;20205;-68
2023/12/25 01:19:00;;;;;;;1.60;0.80;;;;;;;10.57;96.46;95920.78;5037348;28;20237;-68
2023/12/25 01:21:26;;;;;;;0.83;0.60;;;;;;;10.62;96.30;95934.25;5037387;28;20205;-68
2023/12/25 01:23:53;;;;;;;0.60;0.60;;;;;;;10.50;96.46;95925.16;5037368;28;20229;-68
2023/12/25 01:26:20;;;;;;;0.63;0.40;;;;;;;10.80;96.04;95926.75;5037072;28;20201;-68
2023/12/25 01:28:47;;;;;;;0.43;0.40;;;;;;;10.49;96.78;95926.19;5037859;28;20206;-68
2023/12/25 01:31:13;;;;;;;1.80;0.80;;;;;;;10.53;96.69;95917.72;5036976;28;20857;-68
2023/12/25 01:33:40;;;;;;;3.70;0.60;;;;;;;10.47;96.86;95925.53;5036763;28;20601;-67
2023/12/25 01:36:06;;;;;;;0.30;0.30;;;;;;;10.59;96.19;95932.78;5036865;28;20212;-68
2023/12/25 01:38:33;;;;;;;0.60;0.60;;;;;;;10.55;95.62;95926.25;5038454;28;20201;-68
2023/12/25 01:40:59;;;;;;;1.93;0.50;;;;;;;10.55;95.57;95917.50;5035556;28;20201;-68
2023/12/25 01:43:27;;;;;;;0.70;0.50;;;;;;;10.69;95.88;95924.56;5037074;28;20221;-68
2023/12/25 01:45:54;;;;;;;0.50;0.50;;;;;;;10.60;95.11;95925.69;5035250;28;20205;-68
2023/12/25 01:48:21;;;;;;;1.07;0.60;;;;;;;10.72;95.07;95935.56;5036669;28;20201;-67
2023/12/25 01:50:48;;;;;;;0.30;0.30;;;;;;;10.58;94.62;95928.50;5036442;28;20209;-67
2023/12/25 01:53:15;;;;;;;0.40;0.40;;;;;;;10.64;94.11;95926.94;5037224;28;20225;-68
2023/12/25 01:55:42;;;;;;;1.37;0.70;;;;;;;10.60;94.17;95933.59;5037646;28;20209;-68
2023/12/25 01:58:08;;;;;;;1.60;0.70;;;;;;;10.48;94.15;95927.97;5036716;28;20197;-67
2023/12/25 02:00:36;;;;;;;1.07;0.53;;;;;;;10.66;94.37;95922.31;5036147;28;20208;-68
2023/12/25 02:03:03;;;;;;;0.53;0.53;;;;;;;10.55;93.68;95928.88;5035778;28;20732;-68
2023/12/25 02:05:29;;;;;;;0.60;0.57;;;;;;;10.56;93.57;95940.22;5036998;28;20225;-67
2023/12/25 02:07:56;;;;;;;0.40;0.40;;;;;;;10.62;92.73;95944.78;5037084;28;20692;-68
2023/12/25 02:10:26;;;;;;;0.67;0.50;;;;;;;10.82;92.22;95940.53;5037325;28;20198;-68
2023/12/25 02:12:53;;;;;;;0.37;0.37;;;;;;;10.54;92.28;95936.97;5036044;28;20718;-68
2023/12/25 02:15:20;;;;;;;0.50;0.40;;;;;;;10.57;92.03;95932.13;5036543;28;20652;-68
2023/12/25 02:17:48;;;;;;;0.60;0.50;;;;;;;10.70;90.95;95936.75;5036585;28;20209;-68
2023/12/25 02:20:15;;;;;;;0.93;0.60;;;;;;;10.58;90.50;95932.97;5037318;28;20228;-67
2023/12/25 02:22:42;;;;;;;0.40;0.40;;;;;;;10.71;89.53;95933.94;5036290;28;21018;-67
2023/12/25 02:25:13;;;;;;;0.40;0.40;;;;;;;10.79;89.50;95922.47;5035915;28;20224;-68
2023/12/25 02:27:41;;;;;;;0.40;0.40;;;;;;;10.63;89.49;95920.88;5037081;28;20236;-67
2023/12/25 02:30:08;;;;;;;0.67;0.40;;;;;;;10.60;88.71;95923.88;5036168;28;20213;-67
2023/12/25 02:32:35;;;;;;;0.80;0.63;;;;;;;10.58;87.82;95920.59;5035835;28;20224;-67
2023/12/25 02:35:01;;;;;;;0.80;0.67;;;;;;;10.62;87.72;95913.97;5036343;28;20217;-67
2023/12/25 02:37:28;;;;;;;1.33;0.50;;;;;;;10.66;87.11;95909.16;5036252;28;20220;-67
2023/12/25 02:39:54;;;;;;;0.33;0.33;;;;;;;10.63;87.14;95909.53;5036311;28;20212;-67
2023/12/25 02:42:21;;;;;;;0.50;0.50;;;;;;;10.47;86.77;95907.09;5035988;28;20778;-67
2023/12/25 02:44:48;;;;;;;0.77;0.63;;;;;;;10.78;85.93;95920.84;5035791;28;20613;-68
2023/12/25 02:47:15;;;;;;;0.43;0.43;;;;;;;10.59;86.49;95919.63;5036222;28;20204;-68
2023/12/25 02:49:41;;;;;;;0.30;0.30;;;;;;;10.63;85.49;95912.97;5037231;28;20205;-67
2023/12/25 02:52:08;;;;;;;0.40;0.40;;;;;;;10.50;86.50;95914.63;5034337;28;20224;-67
2023/12/25 02:54:34;;;;;;;0.30;0.30;;;;;;;10.67;84.94;95923.97;5035766;28;20193;-67
2023/12/25 02:57:01;;;;;;;2.40;0.87;;;;;;;10.65;84.39;95925.94;5036485;28;20201;-67
2023/12/25 02:59:27;;;;;;;0.40;0.40;;;;;;;10.58;84.66;95936.41;5035691;28;20201;-67
2023/12/25 03:01:55;;;;;;;0.40;0.40;;;;;;;10.84;83.85;95931.44;5035388;28;20220;-67
2023/12/25 03:04:21;;;;;;;0.40;0.40;;;;;;;10.61;83.66;95932.59;5036721;28;20232;-67
2023/12/25 03:06:48;;;;;;;1.07;0.37;;;;;;;10.65;83.96;95923.31;5035763;28;20232;-67
2023/12/25 03:09:14;;;;;;;0.50;0.50;;;;;;;10.52;83.84;95925.81;5035201;28;20205;-67
2023/12/25 03:11:41;;;;;;;0.60;0.50;;;;;;;10.69;83.16;95925.41;5035603;28;20205;-67
2023/12/25 03:14:07;;;;;;;0.50;0.40;;;;;;;10.59;83.43;95927.50;5035351;28;20202;-67
2023/12/25 03:16:34;;;;;;;0.57;0.57;;;;;;;10.64;82.89;95926.94;5035978;28;20201;-67
2023/12/25 03:19:01;;;;;;;0.30;0.30;;;;;;;10.72;83.71;95932.94;5033823;28;20233;-67
2023/12/25 03:21:28;;;;;;;0.30;0.30;;;;;;;10.44;83.72;95925.91;5034879;28;20201;-67
2023/12/25 03:23:54;;;;;;;0.50;0.50;;;;;;;10.53;83.66;95930.06;5035374;28;20752;-67
2023/12/25 03:26:21;;;;;;;0.50;0.50;;;;;;;10.64;83.05;95929.59;5035959;28;20209;-67
2023/12/25 03:28:47;;;;;;;0.47;0.47;;;;;;;10.67;82.73;95926.59;5035798;28;20216;-67
2023/12/25 03:31:14;;;;;;;0.40;0.40;;;;;;;10.61;82.85;95922.88;5034525;28;20214;-67
2023/12/25 03:33:40;;;;;;;0.30;0.30;;;;;;;10.49;83.13;95928.81;5035808;28;20251;-67
2023/12/25 03:36:09;;;;;;;0.70;0.50;;;;;;;10.69;82.40;95927.22;5034541;28;20194;-67
2023/12/25 03:38:36;;;;;;;0.40;0.40;;;;;;;10.54;83.09;95934.34;5036029;28;20656;-67
2023/12/25 03:41:02;;;;;;;2.10;0.80;;;;;;;10.67;82.57;95942.41;5034494;28;20601;-67
2023/12/25 03:43:29;;;;;;;0.20;0.20;;;;;;;10.66;81.69;95940.78;5034694;28;20331;-67
2023/12/25 03:45:57;;;;;;;0.43;0.43;;;;;;;10.52;81.11;95946.88;5034959;28;20236;-67
2023/12/25 03:48:23;;;;;;;0.43;0.43;;;;;;;10.62;80.32;95935.03;5035360;28;20745;-67
2023/12/25 03:50:50;;;;;;;1.37;0.53;;;;;;;10.77;79.89;95924.47;5033895;28;20312;-67
2023/12/25 03:53:17;;;;;;;1.03;0.70;;;;;;;10.78;79.55;95916.41;5035249;28;20224;-67
2023/12/25 03:55:44;;;;;;;5.63;0.50;;;;;;;10.72;78.67;95926.88;5035839;28;20228;-67
2023/12/25 03:58:10;;;;;;;0.40;0.40;;;;;;;10.73;77.50;95920.56;5033918;28;20660;-67
2023/12/25 04:00:38;;;;;;;0.47;0.40;;;;;;;10.58;77.09;95923.25;5035804;28;20224;-67
2023/12/25 04:03:05;;;;;;;1.40;0.83;;;;;;;10.66;76.73;95919.69;5034542;28;20237;-67
2023/12/25 04:05:32;;;;;;;1.23;0.40;;;;;;;10.83;76.75;95915.81;5038663;28;20217;-67
2023/12/25 04:07:58;;;;;;;0.50;0.50;;;;;;;10.74;75.85;95914.31;5038061;28;21212;-67
2023/12/25 04:10:26;;;;;;;0.63;0.37;;;;;;;10.81;75.71;95912.56;5039831;28;20550;-67
2023/12/25 04:12:52;;;;;;;0.37;0.37;;;;;;;10.78;74.29;95912.94;5038058;28;20269;-67
2023/12/25 04:15:19;;;;;;;0.30;0.30;;;;;;;10.56;74.29;95912.06;5039163;28;20197;-67
2023/12/25 04:17:46;;;;;;;0.40;0.40;;;;;;;10.71;72.86;95914.69;5039386;28;20205;-67
2023/12/25 04:20:12;;;;;;;1.03;0.43;;;;;;;10.75;72.33;95914.13;5038487;28;20205;-67
2023/12/25 04:22:39;;;;;;;0.30;0.30;;;;;;;10.67;71.50;95913.44;5038017;28;20224;-69
2023/12/25 04:25:06;;;;;;;1.60;0.47;;;;;;;10.73;70.46;95912.66;5036644;28;21197;-67
2023/12/25 04:27:34;;;;;;;0.50;0.50;;;;;;;10.84;69.65;95917.47;5034450;28;20289;-68
2023/12/25 04:30:00;;;;;;;0.30;0.30;;;;;;;10.82;68.57;95916.81;5035467;28;20574;-67
2023/12/25 04:32:26;;;;;;;0.30;0.30;;;;;;;10.70;68.44;95921.75;5035452;28;20241;-67
2023/12/25 04:34:53;;;;;;;0.70;0.50;;;;;;;10.70;67.78;95918.31;5036547;28;20193;-67
2023/12/25 04:37:20;;;;;;;0.40;0.40;;;;;;;10.74;67.25;95930.13;5035170;28;20217;-67
2023/12/25 04:39:46;;;;;;;0.40;0.40;;;;;;;10.59;66.89;95919.63;5037225;28;20220;-67
2023/12/25 04:42:13;;;;;;;0.40;0.40;;;;;;;10.53;66.58;95922.97;5036261;28;20220;-66
2023/12/25 04:44:42;;;;;;;0.50;0.50;;;;;;;10.69;66.54;95914.88;5036666;28;20900;-68
2023/12/25 04:47:09;;;;;;;0.43;0.43;;;;;;;10.54;66.79;95913.28;5036237;28;20238;-68
2023/12/25 04:49:36;;;;;;;0.67;0.50;;;;;;;10.69;66.09;95917.50;5036137;28;20209;-67
2023/12/25 04:52:02;;;;;;;0.87;0.30;;;;;;;10.53;66.26;95922.97;5035873;28;20221;-66
2023/12/25 04:54:28;;;;;;;0.40;0.40;;;;;;;10.56;66.08;95927.06;5037060;28;20855;-68
2023/12/25 04:56:56;;;;;;;1.80;0.60;;;;;;;10.42;66.41;95933.16;5036849;28;20197;-68
2023/12/25 04:59:23;;;;;;;0.43;0.40;;;;;;;10.46;66.16;95943.16;5037593;28;20205;-68
2023/12/25 05:01:53;;;;;;;0.73;0.50;;;;;;;10.65;66.38;95937.28;5038178;28;20209;-68
2023/12/25 05:04:20;;;;;;;1.57;0.67;;;;;;;10.42;66.08;95934.00;5037795;28;20227;-68
2023/12/25 05:06:46;;;;;;;0.53;0.40;;;;;;;10.34;66.95;95931.44;5037982;28;20228;-68
2023/12/25 05:09:13;;;;;;;0.57;0.50;;;;;;;10.25;66.65;95947.53;5037714;28;20206;-67
2023/12/25 05:11:42;;;;;;;0.30;0.30;;;;;;;10.56;66.61;95940.22;5037839;28;20217;-68
2023/12/25 05:14:08;;;;;;;1.27;0.40;;;;;;;10.34;66.61;95941.97;5037575;28;20212;-67
2023/12/25 05:16:34;;;;;;;0.30;0.30;;;;;;;10.28;67.11;95944.53;5036744;28;20201;-67
2023/12/25 05:19:02;;;;;;;0.50;0.43;;;;;;;10.37;66.91;95952.16;5037022;28;20201;-69
2023/12/25 05:21:29;;;;;;;0.97;0.70;;;;;;;10.32;67.48;95948.41;5037394;28;20252;-68
2023/12/25 05:23:56;;;;;;;0.70;0.70;;;;;;;10.33;67.60;95948.25;5037143;28;20225;-67
2023/12/25 05:26:23;;;;;;;0.40;0.40;;;;;;;9.96;68.97;95944.88;5036073;28;20224;-68
2023/12/25 05:28:49;;;;;;;0.40;0.30;;;;;;;10.13;69.57;95949.00;5037466;28;20571;-67
2023/12/25 05:31:16;;;;;;;0.40;0.40;;;;;;;9.92;70.82;95951.47;5036053;28;20255;-68
2023/12/25 05:33:42;;;;;;;0.30;0.30;;;;;;;10.06;71.08;95942.78;5037389;28;20232;-69
2023/12/25 05:36:10;;;;;;;0.70;0.70;;;;;;;10.31;71.38;95959.97;5036504;28;20202;-67
2023/12/25 05:38:37;;;;;;;0.50;0.50;;;;;;;10.32;72.86;95964.22;5037575;28;20205;-67
2023/12/25 05:41:03;;;;;;;0.40;0.40;;;;;;;10.06;74.00;95953.31;5036057;28;20515;-68
2023/12/25 05:43:30;;;;;;;0.70;0.70;;;;;;;10.16;74.03;95959.16;5037355;28;20221;-67
2023/12/25 05:45:56;;;;;;;0.60;0.60;;;;;;;10.14;75.81;95958.50;5036759;28;20225;-68
2023/12/25 05:48:23;;;;;;;0.50;0.50;;;;;;;10.16;76.88;95953.88;5037363;28;20197;-67
2023/12/25 05:50:49;;;;;;;0.77;0.50;;;;;;;9.97;78.61;95966.75;5036517;28;21029;-68
2023/12/25 05:53:17;;;;;;;1.17;0.63;;;;;;;10.19;77.21;95961.41;5036760;28;20241;-68
2023/12/25 05:55:44;;;;;;;0.70;0.57;;;;;;;10.16;76.96;95947.81;5036739;28;20205;-67
2023/12/25 05:58:10;;;;;;;0.50;0.50;;;;;;;9.81;78.52;95951.09;5036211;28;20212;-67
2023/12/25 06:00:37;;;;;;;0.60;0.40;;;;;;;9.70;79.81;95952.34;5036639;28;20216;-69
2023/12/25 06:03:04;;;;;;;0.50;0.50;;;;;;;9.86;79.51;95960.09;5036044;28;20236;-67
2023/12/25 06:05:30;;;;;;;0.73;0.57;;;;;;;9.92;79.35;95967.25;5036516;28;20618;-67
2023/12/25 06:07:58;;;;;;;0.40;0.40;;;;;;;9.86;79.83;95975.06;5036121;28;20212;-68
2023/12/25 06:10:26;;;;;;;0.40;0.40;;;;;;;10.07;79.61;95983.94;5036600;28;20205;-67
2023/12/25 06:12:52;;;;;;;0.60;0.50;;;;;;;10.00;79.17;95979.56;5035614;28;20236;-68
2023/12/25 06:15:19;;;;;;;0.50;0.50;;;;;;;9.97;79.76;95982.56;5036428;28;21093;-68
2023/12/25 06:17:45;;;;;;;1.07;0.60;;;;;;;9.83;80.90;95968.31;5036062;28;20880;-68
2023/12/25 06:20:12;;;;;;;0.50;0.50;;;;;;;9.84;81.30;95969.16;5035129;28;20205;-67
2023/12/25 06:22:39;;;;;;;0.53;0.53;;;;;;;9.62;82.34;95971.81;5035476;28;20236;-65
2023/12/25 06:25:06;;;;;;;0.90;0.70;;;;;;;9.52;83.53;95968.63;5035483;28;20209;-67
2023/12/25 06:27:34;;;;;;;0.87;0.47;;;;;;;9.66;83.24;95966.03;5033894;28;20219;-67
2023/12/25 06:30:01;;;;;;;0.50;0.40;;;;;;;9.63;82.99;95960.31;5032050;28;20660;-68
2023/12/25 06:32:27;;;;;;;0.50;0.50;;;;;;;9.73;83.34;95962.50;5033751;28;20227;-67
2023/12/25 06:34:54;;;;;;;0.50;0.50;;;;;;;9.70;83.02;95962.88;5034040;28;20205;-67
2023/12/25 06:37:20;;;;;;;0.83;0.60;;;;;;;9.64;84.71;95975.09;5033672;28;20197;-67
2023/12/25 06:39:47;;;;;;;0.60;0.50;;;;;;;9.67;83.94;95966.84;5034805;28;20294;-68
2023/12/25 06:42:13;;;;;;;0.60;0.60;;;;;;;9.75;84.13;95978.13;5034035;28;20221;-67
2023/12/25 06:44:41;;;;;;;1.47;1.10;;;;;;;9.94;84.50;95967.91;5033574;28;20216;-67
2023/12/25 06:47:08;;;;;;;1.77;1.10;;;;;;;9.76;84.67;95972.69;5034505;28;20664;-67
2023/12/25 06:49:34;;;;;;;2.60;1.50;;;;;;;9.62;84.54;95963.94;5033418;28;20197;-67
2023/12/25 06:52:01;;;;;;;2.33;1.50;;;;;;;9.71;84.25;95969.75;5034184;28;20228;-68
2023/12/25 06:54:27;;;;;;;1.33;0.90;;;;;;;9.61;84.31;95971.00;5036084;28;20197;-70
2023/12/25 06:56:54;;;;;;;0.70;0.70;;;;;;;9.76;84.22;95983.22;5035808;28;20220;-69
2023/12/25 06:59:20;;;;;;;0.73;0.70;;;;;;;9.82;83.42;95974.56;5035476;28;20208;-70
2023/12/25 07:01:48;;;;;;;0.60;0.60;;;;;;;9.89;83.45;95978.16;5035203;28;20213;-71
2023/12/25 07:04:15;;;;;;;0.63;0.60;;;;;;;9.99;94.31;95973.47;5034903;28;20566;-69
2023/12/25 07:06:42;;;;;;;0.97;0.50;;;;;;;10.14;89.18;95981.38;5035885;28;20239;-68
2023/12/25 07:09:13;;;;;;;0.83;0.47;;;;;;;10.35;85.19;95969.94;5033043;28;20282;-68
2023/12/25 07:11:40;;;;;;;1.07;0.70;;;;;;;10.37;92.21;95977.66;5035976;28;20216;-70
2023/12/25 07:14:07;;;;;;;0.53;0.53;;;;;;;10.19;81.82;95979.03;5035007;28;20208;-68
2023/12/25 07:16:33;;;;;;;0.40;0.40;;;;;;;10.03;82.14;95987.91;5036860;28;20589;-69
2023/12/25 07:19:01;;;;;;;0.50;0.47;;;;;;;10.13;81.76;95990.28;5033022;28;20208;-70
2023/12/25 07:21:28;;;;;;;0.70;0.43;;;;;;;9.80;82.87;95979.22;5035352;28;20274;-70
2023/12/25 07:23:56;;;;;;;0.60;0.60;;;;;;;9.85;82.83;95981.31;5034805;28;20225;-68
2023/12/25 07:26:23;;;;;;;0.83;0.50;;;;;;;9.78;82.68;95981.19;5033667;28;20648;-68
2023/12/25 07:28:50;;;;;;;0.63;0.50;;;;;;;9.54;84.68;95982.41;5035202;28;20202;-68
2023/12/25 07:31:16;;;;;;;0.57;0.40;;;;;;;9.71;82.47;95993.44;5033191;28;20201;-69
2023/12/25 07:33:43;;;;;;;0.97;0.47;;;;;;;9.79;81.77;95996.00;5034940;28;20229;-70
2023/12/25 07:36:11;;;;;;;0.43;0.40;;;;;;;9.91;81.85;96002.47;5035611;28;20201;-68
2023/12/25 07:38:38;;;;;;;2.80;1.30;;;;;;;9.97;81.72;95995.72;5036651;28;20214;-67
2023/12/25 07:41:09;;;;;;;2.33;1.13;;;;;;;9.85;81.70;95991.81;5037742;28;20212;-68
2023/12/25 07:43:36;;;;;;;2.73;1.53;;;;;;;9.90;81.67;95995.59;5039726;28;20217;-68
2023/12/25 07:46:05;;;;;;;0.93;0.73;;;;;;;9.88;80.29;95999.38;5036000;28;20225;-68
2023/12/25 07:48:31;;;;;;;0.70;0.70;;;;;;;9.80;79.63;96002.91;5038625;28;20761;-67
2023/12/25 07:50:58;;;;;;;0.43;0.43;;;;;;;9.62;78.56;96011.28;5037693;28;20251;-68
2023/12/25 07:53:26;;;;;;;1.00;0.60;;;;;;;10.10;77.02;96012.50;5038303;28;20221;-68
2023/12/25 07:55:52;;;;;;;3.73;1.37;;;;;;;10.11;76.85;96008.88;5038354;28;20197;-68
2023/12/25 07:58:19;;;;;;;5.13;1.83;;;;;;;9.93;76.58;96000.47;5039337;28;20205;-65
2023/12/25 08:00:45;;;;;;;1.47;1.10;;;;;;;10.05;76.32;95995.63;5036966;28;20206;-67
2023/12/25 08:03:12;;;;;;;9.70;2.60;;;;;;;9.95;75.97;95995.03;5035921;28;20232;-67
2023/12/25 08:05:39;;;;;;;4.43;1.47;;;;;;;9.90;75.65;96000.84;5037759;28;20577;-69
2023/12/25 08:08:07;;;;;;;15.93;5.57;;;;;;;10.10;74.14;95996.72;5037389;28;20577;-67
2023/12/25 08:10:35;;;;;;;6.00;2.47;;;;;;;10.20;74.89;96002.53;5036955;28;20201;-67
2023/12/25 08:13:02;;;;;;;3.37;1.23;;;;;;;10.27;72.65;96006.06;5036510;28;20228;-67
2023/12/25 08:15:28;;;;;;;11.07;4.40;;;;;;;10.25;73.38;96000.19;5037641;28;20232;-70
2023/12/25 08:17:55;;;;;;;2.53;1.60;;;;;;;10.05;73.54;96014.88;5037473;28;20205;-69
2023/12/25 08:20:22;;;;;;;2.20;1.30;;;;;;;10.18;71.99;96019.53;5038324;28;20208;-66
2023/12/25 08:22:48;;;;;;;1.40;0.70;;;;;;;10.26;72.03;96027.34;5037451;28;20221;-64
2023/12/25 08:25:15;;;;;;;2.47;1.20;;;;;;;10.36;71.08;96023.44;5038368;28;20205;-67
2023/12/25 08:27:43;;;;;;;7.43;3.10;;;;;;;10.50;70.46;96019.97;5038614;28;20255;-66
2023/12/25 08:30:11;;;;;;;6.03;1.53;;;;;;;10.55;69.51;96023.72;5037551;28;20537;-67
2023/12/25 08:32:37;;;;;;;2.27;1.37;;;;;;;10.36;69.80;96042.69;5038008;28;20220;-66
2023/12/25 08:35:05;;;;;;;0.90;0.80;;;;;;;10.46;69.28;96051.16;5039041;28;20300;-69
2023/12/25 08:37:31;;;;;;;1.20;1.00;;;;;;;10.52;69.01;96057.53;5038213;28;20197;-68
2023/12/25 08:39:58;;;;;;;0.80;0.50;;;;;;;10.66;68.68;96069.88;5037810;28;20215;-68
2023/12/25 08:42:24;;;;;;;1.20;1.00;;;;;;;10.46;69.74;96061.72;5038115;28;20225;-69
2023/12/25 08:44:52;;;;;;;1.67;0.80;;;;;;;10.74;69.63;96053.97;5039433;28;20291;-68
2023/12/25 08:47:19;;;;;;;2.20;0.90;;;;;;;10.52;69.09;96055.69;5036574;28;20216;-68
2023/12/25 08:49:45;;;;;;;1.60;0.97;;;;;;;10.63;68.38;96049.97;5037931;28;20201;-67
2023/12/25 08:52:12;;;;;;;0.53;0.40;;;;;;;10.61;67.98;96049.34;5036983;28;20315;-69
2023/12/25 08:54:38;;;;;;;1.00;0.80;;;;;;;10.57;67.90;96053.34;5037895;28;20201;-67
2023/12/25 08:57:05;;;;;;;0.90;0.70;;;;;;;10.71;67.56;96041.97;5036246;28;20247;-66
2023/12/25 08:59:31;;;;;;;1.70;0.67;;;;;;;10.67;67.15;96053.09;5038105;28;20212;-67
2023/12/25 09:01:59;;;;;;;1.57;1.07;;;;;;;10.97;66.86;96058.97;5036598;28;20224;-68
2023/12/25 09:04:26;;;;;;;0.80;0.57;;;;;;;10.99;65.86;96059.59;5036898;28;20206;-68
2023/12/25 09:06:52;;;;;;;0.83;0.70;;;;;;;11.25;64.82;96080.19;5036123;28;20225;-67
2023/12/25 09:09:19;;;;;;;0.70;0.50;;;;;;;11.30;64.98;96069.91;5036044;28;20201;-67
2023/12/25 09:11:47;;;;;;;0.87;0.60;;;;;;;11.46;64.87;96075.78;5032499;28;20197;-68
2023/12/25 09:14:14;;;;;;;0.43;0.43;;;;;;;11.34;64.00;96079.91;5034301;28;20298;-68
2023/12/25 09:16:40;;;;;;;0.60;0.60;;;;;;;11.41;62.75;96090.53;5032738;28;20206;-68
2023/12/25 09:19:08;;;;;;;0.93;0.63;;;;;;;11.34;63.48;96085.19;5035802;28;20210;-68
2023/12/25 09:21:38;;;;;;;0.67;0.67;;;;;;;11.48;62.76;96099.34;5034493;28;20204;-69
2023/12/25 09:24:05;;;;;;;2.10;0.87;;;;;;;11.43;62.31;96105.19;5033581;28;20228;-68
2023/12/25 09:26:31;;;;;;;1.73;1.00;;;;;;;11.29;62.04;96099.91;5033659;28;20607;-68
2023/12/25 09:28:58;;;;;;;1.07;0.57;;;;;;;11.23;61.75;96119.94;5034349;28;20231;-67
2023/12/25 09:31:25;;;;;;;0.73;0.50;;;;;;;11.20;61.38;96120.31;5034311;28;20305;-69
2023/12/25 09:33:51;;;;;;;0.80;0.60;;;;;;;11.03;62.09;96113.59;5034110;28;20236;-68
2023/12/25 09:36:19;;;;;;;1.80;1.00;;;;;;;11.25;61.50;96123.22;5035468;28;20575;-69
2023/12/25 09:38:45;;;;;;;0.43;0.43;;;;;;;11.07;61.58;96114.88;5035919;28;20224;-69
2023/12/25 09:41:12;;;;;;;0.73;0.60;;;;;;;11.43;61.25;96105.19;5035723;28;20201;-68
2023/12/25 09:43:39;;;;;;;0.93;0.70;;;;;;;11.39;60.19;96103.94;5036582;28;20248;-68
2023/12/25 09:46:06;;;;;;;1.90;1.13;;;;;;;11.51;59.91;96102.47;5035238;28;20209;-68
2023/12/25 09:48:35;;;;;;;0.67;0.67;;;;;;;11.61;59.27;96113.56;5033405;28;20319;-68
2023/12/25 09:51:06;;;;;;;0.40;0.40;;;;;;;11.90;59.42;96102.88;5034536;28;20201;-69
2023/12/25 09:53:34;;;;;;;0.70;0.40;;;;;;;11.92;57.63;96106.16;5034806;28;20224;-68
2023/12/25 09:56:04;;;;;;;0.53;0.47;;;;;;;12.09;57.34;96112.81;5035435;28;20205;-67
2023/12/25 09:58:33;;;;;;;1.80;0.40;;;;;;;12.06;56.65;96107.94;5034458;28;20197;-70
2023/12/25 10:01:01;;;;;;;0.67;0.47;;;;;;;11.97;55.97;96109.06;5034417;28;20202;-70
2023/12/25 10:03:29;;;;;;;0.70;0.60;;;;;;;12.28;56.14;96099.78;5035612;28;20224;-68
2023/12/25 10:05:55;;;;;;;1.27;0.80;;;;;;;12.37;55.10;96098.63;5037365;28;20201;-68
2023/12/25 10:08:22;;;;;;;0.40;0.40;;;;;;;12.00;54.61;96098.91;5035572;28;20255;-68
2023/12/25 10:10:54;;;;;;;1.13;0.53;;;;;;;12.41;53.98;96092.78;5035557;28;20296;-69
2023/12/25 10:13:21;;;;;;;0.40;0.40;;;;;;;11.95;53.59;96109.25;5035104;28;20229;-70
2023/12/25 10:15:47;;;;;;;0.50;0.40;;;;;;;12.04;54.82;96117.84;5034522;28;20228;-70
2023/12/25 10:18:15;;;;;;;0.53;0.30;;;;;;;12.02;54.00;96122.53;5036364;28;20197;-68
2023/12/25 10:20:41;;;;;;;0.67;0.60;;;;;;;12.26;53.40;96109.75;5035815;28;20209;-70
2023/12/25 10:23:12;;;;;;;3.47;1.00;;;;;;;12.51;53.46;96095.94;5035424;28;20765;-68
2023/12/25 10:25:42;;;;;;;0.87;0.60;;;;;;;12.50;53.49;96112.78;5035762;28;20300;-68
2023/12/25 10:28:13;;;;;;;0.97;0.50;;;;;;;12.72;53.04;96116.22;5035110;28;20394;-68
2023/12/25 10:30:40;;;;;;;0.47;0.47;;;;;;;12.42;53.03;96105.00;5035641;28;20205;-67
2023/12/25 10:33:12;;;;;;;0.83;0.60;;;;;;;12.41;52.81;96106.00;5032891;28;20324;-67
2023/12/25 10:35:39;;;;;;;0.53;0.53;;;;;;;12.25;52.73;96108.91;5035286;28;20730;-67
2023/12/25 10:38:07;;;;;;;0.40;0.40;;;;;;;12.40;52.14;96122.88;5035752;28;20686;-67
2023/12/25 10:40:36;;;;;;;1.17;0.60;;;;;;;12.48;52.37;96114.78;5035657;28;20201;-67
2023/12/25 10:43:03;;;;;;;1.50;0.80;;;;;;;12.52;52.52;96109.94;5035304;28;20877;-68
2023/12/25 10:45:31;;;;;;;0.67;0.50;;;;;;;12.64;52.22;96103.94;5035759;28;20235;-68
2023/12/25 10:48:00;;;;;;;0.50;0.50;;;;;;;12.31;52.41;96110.00;5035630;28;20221;-68
2023/12/25 10:50:30;;;;;;;0.40;0.40;;;;;;;12.33;52.54;96098.22;5035479;28;20225;-68
2023/12/25 10:53:03;;;;;;;0.73;0.67;;;;;;;12.76;52.29;96084.69;5035245;28;20710;-68
2023/12/25 10:55:36;;;;;;;0.70;0.53;;;;;;;12.40;52.26;96085.06;5034766;28;20209;-68
2023/12/25 10:58:03;;;;;;;1.40;1.10;;;;;;;12.32;52.49;96093.94;5035958;28;20205;-70
2023/12/25 11:00:34;;;;;;;3.13;0.50;;;;;;;12.22;52.23;96079.44;5032436;28;20205;-67
2023/12/25 11:03:03;;;;;;;0.50;0.50;;;;;;;12.59;52.41;96085.19;5035247;28;20233;-69
2023/12/25 11:05:30;;;;;;;0.63;0.50;;;;;;;12.26;52.22;96088.59;5035107;28;20251;-68
2023/12/25 11:07:58;;;;;;;0.90;0.57;;;;;;;12.37;52.52;96083.63;5035339;28;20225;-68
2023/12/25 11:10:25;;;;;;;0.47;0.47;;;;;;;12.36;52.53;96081.97;5034964;28;20208;-69
2023/12/25 11:12:52;;;;;;;1.93;0.73;;;;;;;12.53;52.37;96080.69;5034499;28;20217;-69
2023/12/25 11:15:18;;;;;;;0.53;0.53;;;;;;;12.21;52.08;96083.88;5035187;28;20584;-68
2023/12/25 11:17:46;;;;;;;0.77;0.77;;;;;;;12.26;52.10;96080.69;5034579;28;20259;-68
2023/12/25 11:20:13;;;;;;;1.37;0.60;;;;;;;12.17;52.41;96073.91;5035933;28;20210;-68
2023/12/25 11:22:44;;;;;;;1.60;0.50;;;;;;;12.33;52.50;96069.16;5034108;28;20229;-67
2023/12/25 11:25:14;;;;;;;0.40;0.40;;;;;;;12.25;51.79;96066.63;5035685;28;20211;-68
2023/12/25 11:27:41;;;;;;;1.90;0.60;;;;;;;12.39;52.36;96057.81;5035162;28;20282;-68
2023/12/25 11:30:10;;;;;;;0.57;0.50;;;;;;;12.24;52.18;96054.47;5035603;28;20209;-68
2023/12/25 11:32:36;;;;;;;0.30;0.30;;;;;;;12.04;52.52;96054.47;5034539;28;20271;-68